sensor_id;sensor_type;location;lat;lon;timestamp;P1;durP1;ratioP1;P2;durP2;ratioP2
505;SDS011;551;48.524;9.056;2024-01-10T00:00:18;37.97;;;16.90;;
505;SDS011;551;48.524;9.056;2024-01-10T00:02:44;36.53;;;14.60;;
505;SDS011;551;48.524;9.056;2024-01-10T00:05:12;32.60;;;12.57;;
505;SDS011;551;48.524;9.056;2024-01-10T00:07:38;25.40;;;12.90;;
505;SDS011;551;48.524;9.056;2024-01-10T00:10:04;25.60;;;13.07;;
505;SDS011;551;48.524;9.056;2024-01-10T00:12:29;24.77;;;11.83;;
505;SDS011;551;48.524;9.056;2024-01-10T00:14:59;30.13;;;15.30;;
505;SDS011;551;48.524;9.056;2024-01-10T00:17:25;34.53;;;14.93;;
505;SDS011;551;48.524;9.056;2024-01-10T00:19:51;32.10;;;14.90;;
505;SDS011;551;48.524;9.056;2024-01-10T00:22:16;37.03;;;18.57;;
505;SDS011;551;48.524;9.056;2024-01-10T00:24:42;36.53;;;16.80;;
505;SDS011;551;48.524;9.056;2024-01-10T00:27:07;40.53;;;15.70;;
505;SDS011;551;48.524;9.056;2024-01-10T00:29:33;33.10;;;15.80;;
505;SDS011;551;48.524;9.056;2024-01-10T00:31:58;30.27;;;16.23;;
505;SDS011;551;48.524;9.056;2024-01-10T00:34:24;35.23;;;16.10;;
505;SDS011;551;48.524;9.056;2024-01-10T00:36:50;32.53;;;15.80;;
505;SDS011;551;48.524;9.056;2024-01-10T00:39:15;31.30;;;15.13;;
505;SDS011;551;48.524;9.056;2024-01-10T00:41:41;29.97;;;12.73;;
505;SDS011;551;48.524;9.056;2024-01-10T00:44:06;27.67;;;11.40;;
505;SDS011;551;48.524;9.056;2024-01-10T00:46:32;21.33;;;10.37;;
505;SDS011;551;48.524;9.056;2024-01-10T00:49:00;19.73;;;10.00;;
505;SDS011;551;48.524;9.056;2024-01-10T00:51:26;27.57;;;9.80;;
505;SDS011;551;48.524;9.056;2024-01-10T00:53:51;27.27;;;10.30;;
505;SDS011;551;48.524;9.056;2024-01-10T00:56:17;22.67;;;10.70;;
505;SDS011;551;48.524;9.056;2024-01-10T00:58:42;17.90;;;9.37;;
505;SDS011;551;48.524;9.056;2024-01-10T01:01:08;29.27;;;11.07;;
505;SDS011;551;48.524;9.056;2024-01-10T01:03:33;24.63;;;10.17;;
505;SDS011;551;48.524;9.056;2024-01-10T01:05:59;20.57;;;9.40;;
505;SDS011;551;48.524;9.056;2024-01-10T01:08:24;20.33;;;9.57;;
505;SDS011;551;48.524;9.056;2024-01-10T01:10:50;18.53;;;10.90;;
505;SDS011;551;48.524;9.056;2024-01-10T01:13:15;27.40;;;10.20;;
505;SDS011;551;48.524;9.056;2024-01-10T01:15:41;23.50;;;10.00;;
505;SDS011;551;48.524;9.056;2024-01-10T01:18:06;22.17;;;11.77;;
505;SDS011;551;48.524;9.056;2024-01-10T01:20:32;28.43;;;11.47;;
505;SDS011;551;48.524;9.056;2024-01-10T01:22:57;22.40;;;11.30;;
505;SDS011;551;48.524;9.056;2024-01-10T01:25:23;26.80;;;12.17;;
505;SDS011;551;48.524;9.056;2024-01-10T01:27:48;25.57;;;12.17;;
505;SDS011;551;48.524;9.056;2024-01-10T01:30:14;16.80;;;10.23;;
505;SDS011;551;48.524;9.056;2024-01-10T01:32:40;26.53;;;12.47;;
505;SDS011;551;48.524;9.056;2024-01-10T01:35:05;24.67;;;12.20;;
505;SDS011;551;48.524;9.056;2024-01-10T01:37:31;30.67;;;13.93;;
505;SDS011;551;48.524;9.056;2024-01-10T01:39:56;19.77;;;10.37;;
505;SDS011;551;48.524;9.056;2024-01-10T01:42:22;17.47;;;9.30;;
505;SDS011;551;48.524;9.056;2024-01-10T01:44:47;18.70;;;9.93;;
505;SDS011;551;48.524;9.056;2024-01-10T01:47:13;21.37;;;10.33;;
505;SDS011;551;48.524;9.056;2024-01-10T01:49:39;20.13;;;9.70;;
505;SDS011;551;48.524;9.056;2024-01-10T01:52:07;18.17;;;11.03;;
505;SDS011;551;48.524;9.056;2024-01-10T01:54:33;21.40;;;9.60;;
505;SDS011;551;48.524;9.056;2024-01-10T01:56:59;15.03;;;8.47;;
505;SDS011;551;48.524;9.056;2024-01-10T01:59:25;19.30;;;9.33;;
505;SDS011;551;48.524;9.056;2024-01-10T02:01:51;20.77;;;10.20;;
505;SDS011;551;48.524;9.056;2024-01-10T02:04:17;21.93;;;9.20;;
505;SDS011;551;48.524;9.056;2024-01-10T02:06:44;17.93;;;9.53;;
505;SDS011;551;48.524;9.056;2024-01-10T02:09:10;22.60;;;10.80;;
505;SDS011;551;48.524;9.056;2024-01-10T02:11:35;23.77;;;11.77;;
505;SDS011;551;48.524;9.056;2024-01-10T02:14:01;24.60;;;9.63;;
505;SDS011;551;48.524;9.056;2024-01-10T02:16:27;24.90;;;10.90;;
505;SDS011;551;48.524;9.056;2024-01-10T02:18:53;18.30;;;9.80;;
505;SDS011;551;48.524;9.056;2024-01-10T02:21:21;25.97;;;10.90;;
505;SDS011;551;48.524;9.056;2024-01-10T02:23:47;21.20;;;10.17;;
505;SDS011;551;48.524;9.056;2024-01-10T02:26:13;18.33;;;10.67;;
505;SDS011;551;48.524;9.056;2024-01-10T02:28:39;20.57;;;10.40;;
505;SDS011;551;48.524;9.056;2024-01-10T02:31:05;25.80;;;11.10;;
505;SDS011;551;48.524;9.056;2024-01-10T02:33:32;19.27;;;10.90;;
505;SDS011;551;48.524;9.056;2024-01-10T02:35:57;20.10;;;11.10;;
505;SDS011;551;48.524;9.056;2024-01-10T02:38:23;21.97;;;11.20;;
505;SDS011;551;48.524;9.056;2024-01-10T02:40:48;22.60;;;11.80;;
505;SDS011;551;48.524;9.056;2024-01-10T02:43:14;21.60;;;10.40;;
505;SDS011;551;48.524;9.056;2024-01-10T02:45:40;22.93;;;10.03;;
505;SDS011;551;48.524;9.056;2024-01-10T02:48:06;20.70;;;10.10;;
505;SDS011;551;48.524;9.056;2024-01-10T02:50:32;26.00;;;11.27;;
505;SDS011;551;48.524;9.056;2024-01-10T02:52:59;23.90;;;11.30;;
505;SDS011;551;48.524;9.056;2024-01-10T02:55:24;24.53;;;11.00;;
505;SDS011;551;48.524;9.056;2024-01-10T02:57:50;24.30;;;11.83;;
505;SDS011;551;48.524;9.056;2024-01-10T03:00:15;22.07;;;9.80;;
505;SDS011;551;48.524;9.056;2024-01-10T03:02:41;24.50;;;12.23;;
505;SDS011;551;48.524;9.056;2024-01-10T03:05:07;24.77;;;11.70;;
505;SDS011;551;48.524;9.056;2024-01-10T03:07:32;23.50;;;11.20;;
505;SDS011;551;48.524;9.056;2024-01-10T03:09:58;27.20;;;12.13;;
505;SDS011;551;48.524;9.056;2024-01-10T03:12:23;27.07;;;11.90;;
505;SDS011;551;48.524;9.056;2024-01-10T03:14:49;22.03;;;11.07;;
505;SDS011;551;48.524;9.056;2024-01-10T03:17:14;24.60;;;10.80;;
505;SDS011;551;48.524;9.056;2024-01-10T03:19:40;21.53;;;9.10;;
505;SDS011;551;48.524;9.056;2024-01-10T03:22:08;21.40;;;11.70;;
505;SDS011;551;48.524;9.056;2024-01-10T03:24:35;23.67;;;11.80;;
505;SDS011;551;48.524;9.056;2024-01-10T03:27:00;20.83;;;11.63;;
505;SDS011;551;48.524;9.056;2024-01-10T03:29:27;23.73;;;11.60;;
505;SDS011;551;48.524;9.056;2024-01-10T03:31:52;22.60;;;11.43;;
505;SDS011;551;48.524;9.056;2024-01-10T03:34:18;24.07;;;10.10;;
505;SDS011;551;48.524;9.056;2024-01-10T03:36:43;23.50;;;11.40;;
505;SDS011;551;48.524;9.056;2024-01-10T03:39:09;27.03;;;12.80;;
505;SDS011;551;48.524;9.056;2024-01-10T03:41:35;24.60;;;12.10;;
505;SDS011;551;48.524;9.056;2024-01-10T03:44:00;27.17;;;10.73;;
505;SDS011;551;48.524;9.056;2024-01-10T03:46:26;19.73;;;10.17;;
505;SDS011;551;48.524;9.056;2024-01-10T03:48:52;26.30;;;12.10;;
505;SDS011;551;48.524;9.056;2024-01-10T03:51:18;27.20;;;12.30;;
505;SDS011;551;48.524;9.056;2024-01-10T03:53:47;22.43;;;12.10;;
505;SDS011;551;48.524;9.056;2024-01-10T03:56:14;30.60;;;13.40;;
505;SDS011;551;48.524;9.056;2024-01-10T03:58:40;27.97;;;12.40;;
505;SDS011;551;48.524;9.056;2024-01-10T04:01:06;22.37;;;10.70;;
505;SDS011;551;48.524;9.056;2024-01-10T04:03:34;27.63;;;13.77;;
505;SDS011;551;48.524;9.056;2024-01-10T04:06:01;29.83;;;13.93;;
505;SDS011;551;48.524;9.056;2024-01-10T04:08:27;27.33;;;13.00;;
505;SDS011;551;48.524;9.056;2024-01-10T04:10:52;30.03;;;13.10;;
505;SDS011;551;48.524;9.056;2024-01-10T04:13:18;30.30;;;13.93;;
505;SDS011;551;48.524;9.056;2024-01-10T04:15:43;28.43;;;14.37;;
505;SDS011;551;48.524;9.056;2024-01-10T04:18:09;24.90;;;13.17;;
505;SDS011;551;48.524;9.056;2024-01-10T04:20:34;29.20;;;14.03;;
505;SDS011;551;48.524;9.056;2024-01-10T04:23:00;23.43;;;11.87;;
505;SDS011;551;48.524;9.056;2024-01-10T04:25:25;26.50;;;11.90;;
505;SDS011;551;48.524;9.056;2024-01-10T04:27:51;22.27;;;12.60;;
505;SDS011;551;48.524;9.056;2024-01-10T04:30:16;29.20;;;14.23;;
505;SDS011;551;48.524;9.056;2024-01-10T04:32:42;30.40;;;13.53;;
505;SDS011;551;48.524;9.056;2024-01-10T04:35:08;30.57;;;13.90;;
505;SDS011;551;48.524;9.056;2024-01-10T04:37:33;24.13;;;15.17;;
505;SDS011;551;48.524;9.056;2024-01-10T04:39:59;27.60;;;15.83;;
505;SDS011;551;48.524;9.056;2024-01-10T04:42:24;26.80;;;14.27;;
505;SDS011;551;48.524;9.056;2024-01-10T04:44:50;29.30;;;15.23;;
505;SDS011;551;48.524;9.056;2024-01-10T04:47:16;30.93;;;14.83;;
505;SDS011;551;48.524;9.056;2024-01-10T04:49:41;42.47;;;15.07;;
505;SDS011;551;48.524;9.056;2024-01-10T04:52:07;27.60;;;15.07;;
505;SDS011;551;48.524;9.056;2024-01-10T04:54:32;26.00;;;13.97;;
505;SDS011;551;48.524;9.056;2024-01-10T04:56:59;29.30;;;15.40;;
505;SDS011;551;48.524;9.056;2024-01-10T04:59:24;26.10;;;15.43;;
505;SDS011;551;48.524;9.056;2024-01-10T05:01:50;37.53;;;15.43;;
505;SDS011;551;48.524;9.056;2024-01-10T05:04:15;30.07;;;14.90;;
505;SDS011;551;48.524;9.056;2024-01-10T05:06:41;31.13;;;15.03;;
505;SDS011;551;48.524;9.056;2024-01-10T05:09:06;39.93;;;14.40;;
505;SDS011;551;48.524;9.056;2024-01-10T05:11:32;44.53;;;15.70;;
505;SDS011;551;48.524;9.056;2024-01-10T05:13:59;30.43;;;15.20;;
505;SDS011;551;48.524;9.056;2024-01-10T05:16:25;26.60;;;15.53;;
505;SDS011;551;48.524;9.056;2024-01-10T05:18:50;32.97;;;14.43;;
505;SDS011;551;48.524;9.056;2024-01-10T05:21:16;39.03;;;13.70;;
505;SDS011;551;48.524;9.056;2024-01-10T05:23:42;31.33;;;13.73;;
505;SDS011;551;48.524;9.056;2024-01-10T05:26:07;27.50;;;14.70;;
505;SDS011;551;48.524;9.056;2024-01-10T05:28:33;35.37;;;15.53;;
505;SDS011;551;48.524;9.056;2024-01-10T05:30:58;29.57;;;14.03;;
505;SDS011;551;48.524;9.056;2024-01-10T05:33:24;25.90;;;13.30;;
505;SDS011;551;48.524;9.056;2024-01-10T05:35:49;30.77;;;15.30;;
505;SDS011;551;48.524;9.056;2024-01-10T05:38:15;28.40;;;13.50;;
505;SDS011;551;48.524;9.056;2024-01-10T05:40:41;33.67;;;15.77;;
505;SDS011;551;48.524;9.056;2024-01-10T05:43:06;29.87;;;14.27;;
505;SDS011;551;48.524;9.056;2024-01-10T05:45:32;29.23;;;14.60;;
505;SDS011;551;48.524;9.056;2024-01-10T05:47:58;31.43;;;15.20;;
505;SDS011;551;48.524;9.056;2024-01-10T05:50:24;29.77;;;16.17;;
505;SDS011;551;48.524;9.056;2024-01-10T05:52:49;29.90;;;14.50;;
505;SDS011;551;48.524;9.056;2024-01-10T05:55:15;32.07;;;15.87;;
505;SDS011;551;48.524;9.056;2024-01-10T05:57:40;35.30;;;15.97;;
505;SDS011;551;48.524;9.056;2024-01-10T06:00:06;31.90;;;14.63;;
505;SDS011;551;48.524;9.056;2024-01-10T06:02:36;32.00;;;16.77;;
505;SDS011;551;48.524;9.056;2024-01-10T06:05:04;36.90;;;17.60;;
505;SDS011;551;48.524;9.056;2024-01-10T06:07:33;29.50;;;16.07;;
505;SDS011;551;48.524;9.056;2024-01-10T06:10:02;31.17;;;15.57;;
505;SDS011;551;48.524;9.056;2024-01-10T06:12:29;29.90;;;14.50;;
505;SDS011;551;48.524;9.056;2024-01-10T06:14:54;27.20;;;13.97;;
505;SDS011;551;48.524;9.056;2024-01-10T06:17:21;37.80;;;16.37;;
505;SDS011;551;48.524;9.056;2024-01-10T06:19:47;33.77;;;15.77;;
505;SDS011;551;48.524;9.056;2024-01-10T06:22:12;33.93;;;16.03;;
505;SDS011;551;48.524;9.056;2024-01-10T06:24:38;32.07;;;15.50;;
505;SDS011;551;48.524;9.056;2024-01-10T06:27:04;31.83;;;14.90;;
505;SDS011;551;48.524;9.056;2024-01-10T06:29:31;30.40;;;16.13;;
505;SDS011;551;48.524;9.056;2024-01-10T06:31:57;31.93;;;15.27;;
505;SDS011;551;48.524;9.056;2024-01-10T06:34:23;32.23;;;16.07;;
505;SDS011;551;48.524;9.056;2024-01-10T06:36:49;34.27;;;15.70;;
505;SDS011;551;48.524;9.056;2024-01-10T06:39:14;29.73;;;14.73;;
505;SDS011;551;48.524;9.056;2024-01-10T06:41:41;35.17;;;15.90;;
505;SDS011;551;48.524;9.056;2024-01-10T06:44:07;26.43;;;14.70;;
505;SDS011;551;48.524;9.056;2024-01-10T06:46:33;33.20;;;14.40;;
505;SDS011;551;48.524;9.056;2024-01-10T06:48:59;25.27;;;13.83;;
505;SDS011;551;48.524;9.056;2024-01-10T06:51:24;25.57;;;13.20;;
505;SDS011;551;48.524;9.056;2024-01-10T06:53:51;24.87;;;11.60;;
505;SDS011;551;48.524;9.056;2024-01-10T06:56:20;25.93;;;12.40;;
505;SDS011;551;48.524;9.056;2024-01-10T06:58:45;27.83;;;13.20;;
505;SDS011;551;48.524;9.056;2024-01-10T07:01:11;26.43;;;13.23;;
505;SDS011;551;48.524;9.056;2024-01-10T07:03:38;31.73;;;14.20;;
505;SDS011;551;48.524;9.056;2024-01-10T07:06:04;35.60;;;17.27;;
505;SDS011;551;48.524;9.056;2024-01-10T07:08:30;27.60;;;15.80;;
505;SDS011;551;48.524;9.056;2024-01-10T07:10:55;34.77;;;17.90;;
505;SDS011;551;48.524;9.056;2024-01-10T07:13:21;29.83;;;16.33;;
505;SDS011;551;48.524;9.056;2024-01-10T07:15:48;27.40;;;15.20;;
505;SDS011;551;48.524;9.056;2024-01-10T07:18:15;29.07;;;16.30;;
505;SDS011;551;48.524;9.056;2024-01-10T07:20:41;35.30;;;16.53;;
505;SDS011;551;48.524;9.056;2024-01-10T07:23:07;32.47;;;17.37;;
505;SDS011;551;48.524;9.056;2024-01-10T07:25:32;34.17;;;15.53;;
505;SDS011;551;48.524;9.056;2024-01-10T07:27:58;35.30;;;15.40;;
505;SDS011;551;48.524;9.056;2024-01-10T07:30:24;34.40;;;16.63;;
505;SDS011;551;48.524;9.056;2024-01-10T07:32:50;32.47;;;15.03;;
505;SDS011;551;48.524;9.056;2024-01-10T07:35:15;32.53;;;16.90;;
505;SDS011;551;48.524;9.056;2024-01-10T07:37:41;35.40;;;15.93;;
505;SDS011;551;48.524;9.056;2024-01-10T07:40:08;28.73;;;16.23;;
505;SDS011;551;48.524;9.056;2024-01-10T07:42:35;29.77;;;16.40;;
505;SDS011;551;48.524;9.056;2024-01-10T07:45:04;35.90;;;15.53;;
505;SDS011;551;48.524;9.056;2024-01-10T07:47:30;31.23;;;17.20;;
505;SDS011;551;48.524;9.056;2024-01-10T07:49:59;34.10;;;17.80;;
505;SDS011;551;48.524;9.056;2024-01-10T07:52:24;40.87;;;16.00;;
505;SDS011;551;48.524;9.056;2024-01-10T07:54:50;36.53;;;15.07;;
505;SDS011;551;48.524;9.056;2024-01-10T07:57:15;33.13;;;17.37;;
505;SDS011;551;48.524;9.056;2024-01-10T07:59:43;29.73;;;16.00;;
505;SDS011;551;48.524;9.056;2024-01-10T08:02:09;34.77;;;16.40;;
505;SDS011;551;48.524;9.056;2024-01-10T08:04:35;35.13;;;14.97;;
505;SDS011;551;48.524;9.056;2024-01-10T08:07:00;41.37;;;18.37;;
505;SDS011;551;48.524;9.056;2024-01-10T08:09:26;31.40;;;15.30;;
505;SDS011;551;48.524;9.056;2024-01-10T08:11:52;26.67;;;16.37;;
505;SDS011;551;48.524;9.056;2024-01-10T08:14:17;38.97;;;16.40;;
505;SDS011;551;48.524;9.056;2024-01-10T08:16:43;40.67;;;18.43;;
505;SDS011;551;48.524;9.056;2024-01-10T08:19:10;35.03;;;16.93;;
505;SDS011;551;48.524;9.056;2024-01-10T08:21:36;36.50;;;17.63;;
505;SDS011;551;48.524;9.056;2024-01-10T08:24:02;31.53;;;16.50;;
505;SDS011;551;48.524;9.056;2024-01-10T08:26:28;34.57;;;16.20;;
505;SDS011;551;48.524;9.056;2024-01-10T08:28:54;38.53;;;17.60;;
505;SDS011;551;48.524;9.056;2024-01-10T08:31:19;30.13;;;17.10;;
505;SDS011;551;48.524;9.056;2024-01-10T08:33:45;38.47;;;17.83;;
505;SDS011;551;48.524;9.056;2024-01-10T08:36:11;38.37;;;19.07;;
505;SDS011;551;48.524;9.056;2024-01-10T08:38:37;37.37;;;18.90;;
505;SDS011;551;48.524;9.056;2024-01-10T08:41:03;33.93;;;17.03;;
505;SDS011;551;48.524;9.056;2024-01-10T08:43:32;42.50;;;21.00;;
505;SDS011;551;48.524;9.056;2024-01-10T08:45:58;27.97;;;12.93;;
505;SDS011;551;48.524;9.056;2024-01-10T08:48:23;36.23;;;14.40;;
505;SDS011;551;48.524;9.056;2024-01-10T08:50:50;26.90;;;13.40;;
505;SDS011;551;48.524;9.056;2024-01-10T08:53:16;24.57;;;12.53;;
505;SDS011;551;48.524;9.056;2024-01-10T08:55:41;28.07;;;15.27;;
505;SDS011;551;48.524;9.056;2024-01-10T08:58:07;33.20;;;14.07;;
505;SDS011;551;48.524;9.056;2024-01-10T09:00:33;29.57;;;13.93;;
505;SDS011;551;48.524;9.056;2024-01-10T09:02:59;30.07;;;15.10;;
505;SDS011;551;48.524;9.056;2024-01-10T09:05:25;31.10;;;15.27;;
505;SDS011;551;48.524;9.056;2024-01-10T09:07:50;32.47;;;13.93;;
505;SDS011;551;48.524;9.056;2024-01-10T09:10:18;31.67;;;15.80;;
505;SDS011;551;48.524;9.056;2024-01-10T09:12:46;29.13;;;14.77;;
505;SDS011;551;48.524;9.056;2024-01-10T09:15:12;30.17;;;14.70;;
505;SDS011;551;48.524;9.056;2024-01-10T09:17:39;35.13;;;16.90;;
505;SDS011;551;48.524;9.056;2024-01-10T09:20:06;26.33;;;14.80;;
505;SDS011;551;48.524;9.056;2024-01-10T09:22:32;29.90;;;15.03;;
505;SDS011;551;48.524;9.056;2024-01-10T09:24:58;28.50;;;15.43;;
505;SDS011;551;48.524;9.056;2024-01-10T09:27:28;26.30;;;15.63;;
505;SDS011;551;48.524;9.056;2024-01-10T09:29:55;31.20;;;14.33;;
505;SDS011;551;48.524;9.056;2024-01-10T09:32:20;25.37;;;14.20;;
505;SDS011;551;48.524;9.056;2024-01-10T09:34:47;25.40;;;13.30;;
505;SDS011;551;48.524;9.056;2024-01-10T09:37:12;31.40;;;15.37;;
505;SDS011;551;48.524;9.056;2024-01-10T09:39:38;26.70;;;14.70;;
505;SDS011;551;48.524;9.056;2024-01-10T09:42:03;34.13;;;15.33;;
505;SDS011;551;48.524;9.056;2024-01-10T09:44:29;27.57;;;15.20;;
505;SDS011;551;48.524;9.056;2024-01-10T09:46:55;28.48;;;15.13;;
505;SDS011;551;48.524;9.056;2024-01-10T09:49:20;30.63;;;13.90;;
505;SDS011;551;48.524;9.056;2024-01-10T09:51:47;28.57;;;16.90;;
505;SDS011;551;48.524;9.056;2024-01-10T09:54:13;31.27;;;16.33;;
505;SDS011;551;48.524;9.056;2024-01-10T09:56:41;37.60;;;19.07;;
505;SDS011;551;48.524;9.056;2024-01-10T09:59:07;39.15;;;18.60;;
505;SDS011;551;48.524;9.056;2024-01-10T10:01:36;32.23;;;19.00;;
505;SDS011;551;48.524;9.056;2024-01-10T10:04:04;29.93;;;17.37;;
505;SDS011;551;48.524;9.056;2024-01-10T10:06:32;34.33;;;18.48;;
505;SDS011;551;48.524;9.056;2024-01-10T10:08:59;29.37;;;17.30;;
505;SDS011;551;48.524;9.056;2024-01-10T10:11:24;34.13;;;18.60;;
505;SDS011;551;48.524;9.056;2024-01-10T10:13:50;30.33;;;18.23;;
505;SDS011;551;48.524;9.056;2024-01-10T10:16:18;36.92;;;22.02;;
505;SDS011;551;48.524;9.056;2024-01-10T10:18:49;31.10;;;18.30;;
505;SDS011;551;48.524;9.056;2024-01-10T10:21:22;29.97;;;16.20;;
505;SDS011;551;48.524;9.056;2024-01-10T10:24:00;36.23;;;18.93;;
505;SDS011;551;48.524;9.056;2024-01-10T10:26:27;28.92;;;18.83;;
505;SDS011;551;48.524;9.056;2024-01-10T10:28:54;32.70;;;18.53;;
505;SDS011;551;48.524;9.056;2024-01-10T10:31:21;32.67;;;19.73;;
505;SDS011;551;48.524;9.056;2024-01-10T10:33:48;27.80;;;17.03;;
505;SDS011;551;48.524;9.056;2024-01-10T10:36:16;30.50;;;17.13;;
505;SDS011;551;48.524;9.056;2024-01-10T10:38:43;31.03;;;17.73;;
505;SDS011;551;48.524;9.056;2024-01-10T10:41:08;33.63;;;19.83;;
505;SDS011;551;48.524;9.056;2024-01-10T10:43:35;29.70;;;18.10;;
505;SDS011;551;48.524;9.056;2024-01-10T10:46:02;26.47;;;17.70;;
505;SDS011;551;48.524;9.056;2024-01-10T10:48:31;34.43;;;19.60;;
505;SDS011;551;48.524;9.056;2024-01-10T10:51:03;32.50;;;19.50;;
505;SDS011;551;48.524;9.056;2024-01-10T10:53:34;35.10;;;20.10;;
505;SDS011;551;48.524;9.056;2024-01-10T10:56:04;42.97;;;20.07;;
505;SDS011;551;48.524;9.056;2024-01-10T10:58:34;29.27;;;18.47;;
505;SDS011;551;48.524;9.056;2024-01-10T11:01:03;32.00;;;18.43;;
505;SDS011;551;48.524;9.056;2024-01-10T11:03:36;27.70;;;18.63;;
505;SDS011;551;48.524;9.056;2024-01-10T11:06:05;27.43;;;17.90;;
505;SDS011;551;48.524;9.056;2024-01-10T11:08:33;37.20;;;18.90;;
505;SDS011;551;48.524;9.056;2024-01-10T11:11:31;32.10;;;19.60;;
505;SDS011;551;48.524;9.056;2024-01-10T11:25:04;31.83;;;18.33;;
505;SDS011;551;48.524;9.056;2024-01-10T11:27:30;29.63;;;18.10;;
505;SDS011;551;48.524;9.056;2024-01-10T11:29:55;27.00;;;17.10;;
505;SDS011;551;48.524;9.056;2024-01-10T11:32:23;27.00;;;16.43;;
505;SDS011;551;48.524;9.056;2024-01-10T11:37:42;31.50;;;17.37;;
505;SDS011;551;48.524;9.056;2024-01-10T11:40:09;28.45;;;18.23;;
505;SDS011;551;48.524;9.056;2024-01-10T11:42:44;31.23;;;18.50;;
505;SDS011;551;48.524;9.056;2024-01-10T11:47:57;32.47;;;17.17;;
505;SDS011;551;48.524;9.056;2024-01-10T11:50:23;34.67;;;18.77;;
505;SDS011;551;48.524;9.056;2024-01-10T11:52:52;33.77;;;19.17;;
505;SDS011;551;48.524;9.056;2024-01-10T11:58:17;28.13;;;16.93;;
505;SDS011;551;48.524;9.056;2024-01-10T12:00:42;26.30;;;17.23;;
505;SDS011;551;48.524;9.056;2024-01-10T12:03:08;31.53;;;19.07;;
505;SDS011;551;48.524;9.056;2024-01-10T12:05:37;35.73;;;19.80;;
505;SDS011;551;48.524;9.056;2024-01-10T12:08:06;37.50;;;21.40;;
505;SDS011;551;48.524;9.056;2024-01-10T12:10:33;36.80;;;21.77;;
505;SDS011;551;48.524;9.056;2024-01-10T12:13:01;33.93;;;20.63;;
505;SDS011;551;48.524;9.056;2024-01-10T12:15:28;34.23;;;20.10;;
505;SDS011;551;48.524;9.056;2024-01-10T12:17:54;31.73;;;18.90;;
505;SDS011;551;48.524;9.056;2024-01-10T12:20:20;31.93;;;19.97;;
505;SDS011;551;48.524;9.056;2024-01-10T12:22:46;30.73;;;18.00;;
505;SDS011;551;48.524;9.056;2024-01-10T12:25:12;31.27;;;19.37;;
505;SDS011;551;48.524;9.056;2024-01-10T12:27:37;35.60;;;19.47;;
505;SDS011;551;48.524;9.056;2024-01-10T12:30:03;31.47;;;19.50;;
505;SDS011;551;48.524;9.056;2024-01-10T12:32:30;32.80;;;21.20;;
505;SDS011;551;48.524;9.056;2024-01-10T12:35:03;35.53;;;18.80;;
505;SDS011;551;48.524;9.056;2024-01-10T12:37:30;28.23;;;18.23;;
505;SDS011;551;48.524;9.056;2024-01-10T12:39:56;35.30;;;19.37;;
505;SDS011;551;48.524;9.056;2024-01-10T12:42:22;29.63;;;18.93;;
505;SDS011;551;48.524;9.056;2024-01-10T12:44:48;29.63;;;19.63;;
505;SDS011;551;48.524;9.056;2024-01-10T12:47:20;27.80;;;18.60;;
505;SDS011;551;48.524;9.056;2024-01-10T12:49:47;32.27;;;19.50;;
505;SDS011;551;48.524;9.056;2024-01-10T12:52:12;32.33;;;18.50;;
505;SDS011;551;48.524;9.056;2024-01-10T12:54:38;29.43;;;19.20;;
505;SDS011;551;48.524;9.056;2024-01-10T12:57:04;35.83;;;19.43;;
505;SDS011;551;48.524;9.056;2024-01-10T12:59:30;29.93;;;18.90;;
505;SDS011;551;48.524;9.056;2024-01-10T13:01:56;31.90;;;19.73;;
505;SDS011;551;48.524;9.056;2024-01-10T13:04:22;27.83;;;18.60;;
505;SDS011;551;48.524;9.056;2024-01-10T13:06:47;32.83;;;17.83;;
505;SDS011;551;48.524;9.056;2024-01-10T13:09:13;35.00;;;19.07;;
505;SDS011;551;48.524;9.056;2024-01-10T13:11:38;35.37;;;19.73;;
505;SDS011;551;48.524;9.056;2024-01-10T13:14:04;36.23;;;18.90;;
505;SDS011;551;48.524;9.056;2024-01-10T13:16:29;35.13;;;18.10;;
505;SDS011;551;48.524;9.056;2024-01-10T13:18:55;31.70;;;18.80;;
505;SDS011;551;48.524;9.056;2024-01-10T13:21:22;30.27;;;19.03;;
505;SDS011;551;48.524;9.056;2024-01-10T13:23:47;27.13;;;17.10;;
505;SDS011;551;48.524;9.056;2024-01-10T13:26:13;33.43;;;18.33;;
505;SDS011;551;48.524;9.056;2024-01-10T13:28:39;28.30;;;19.20;;
505;SDS011;551;48.524;9.056;2024-01-10T13:31:05;29.00;;;18.60;;
505;SDS011;551;48.524;9.056;2024-01-10T13:33:31;28.93;;;18.30;;
505;SDS011;551;48.524;9.056;2024-01-10T13:35:56;25.97;;;17.67;;
505;SDS011;551;48.524;9.056;2024-01-10T13:38:22;27.47;;;17.70;;
505;SDS011;551;48.524;9.056;2024-01-10T13:40:49;31.60;;;17.83;;
505;SDS011;551;48.524;9.056;2024-01-10T13:43:15;30.43;;;17.40;;
505;SDS011;551;48.524;9.056;2024-01-10T13:45:40;34.27;;;19.30;;
505;SDS011;551;48.524;9.056;2024-01-10T13:48:06;29.83;;;18.07;;
505;SDS011;551;48.524;9.056;2024-01-10T13:50:32;32.27;;;20.00;;
505;SDS011;551;48.524;9.056;2024-01-10T13:52:58;30.00;;;17.80;;
505;SDS011;551;48.524;9.056;2024-01-10T13:55:23;35.27;;;19.77;;
505;SDS011;551;48.524;9.056;2024-01-10T13:57:49;24.43;;;17.80;;
505;SDS011;551;48.524;9.056;2024-01-10T14:00:15;34.17;;;18.20;;
505;SDS011;551;48.524;9.056;2024-01-10T14:02:41;31.77;;;17.30;;
505;SDS011;551;48.524;9.056;2024-01-10T14:05:07;31.30;;;17.80;;
505;SDS011;551;48.524;9.056;2024-01-10T14:07:34;29.52;;;18.83;;
505;SDS011;551;48.524;9.056;2024-01-10T14:10:00;31.90;;;17.57;;
505;SDS011;551;48.524;9.056;2024-01-10T14:12:27;30.77;;;18.00;;
505;SDS011;551;48.524;9.056;2024-01-10T14:14:54;32.53;;;18.90;;
505;SDS011;551;48.524;9.056;2024-01-10T14:17:20;31.67;;;18.67;;
505;SDS011;551;48.524;9.056;2024-01-10T14:19:50;28.77;;;19.13;;
505;SDS011;551;48.524;9.056;2024-01-10T14:22:16;36.03;;;21.20;;
505;SDS011;551;48.524;9.056;2024-01-10T14:24:43;30.00;;;18.83;;
505;SDS011;551;48.524;9.056;2024-01-10T14:27:09;30.43;;;18.73;;
505;SDS011;551;48.524;9.056;2024-01-10T14:29:34;33.10;;;19.63;;
505;SDS011;551;48.524;9.056;2024-01-10T14:32:00;28.10;;;18.13;;
505;SDS011;551;48.524;9.056;2024-01-10T14:34:26;27.57;;;17.40;;
505;SDS011;551;48.524;9.056;2024-01-10T14:36:52;31.53;;;18.80;;
505;SDS011;551;48.524;9.056;2024-01-10T14:39:18;35.20;;;18.90;;
505;SDS011;551;48.524;9.056;2024-01-10T14:41:43;24.67;;;16.30;;
505;SDS011;551;48.524;9.056;2024-01-10T14:44:09;31.67;;;18.20;;
505;SDS011;551;48.524;9.056;2024-01-10T14:46:35;30.63;;;18.07;;
505;SDS011;551;48.524;9.056;2024-01-10T14:49:01;32.03;;;18.77;;
505;SDS011;551;48.524;9.056;2024-01-10T14:51:27;28.03;;;17.60;;
505;SDS011;551;48.524;9.056;2024-01-10T14:53:52;25.83;;;16.23;;
505;SDS011;551;48.524;9.056;2024-01-10T14:56:18;31.60;;;17.50;;
505;SDS011;551;48.524;9.056;2024-01-10T14:58:43;36.10;;;19.40;;
505;SDS011;551;48.524;9.056;2024-01-10T15:01:10;34.30;;;17.50;;
505;SDS011;551;48.524;9.056;2024-01-10T15:03:35;32.83;;;17.17;;
505;SDS011;551;48.524;9.056;2024-01-10T15:06:03;33.77;;;17.20;;
505;SDS011;551;48.524;9.056;2024-01-10T15:08:30;33.03;;;16.57;;
505;SDS011;551;48.524;9.056;2024-01-10T15:10:56;37.43;;;17.50;;
505;SDS011;551;48.524;9.056;2024-01-10T15:13:21;29.57;;;15.97;;
505;SDS011;551;48.524;9.056;2024-01-10T15:15:47;26.27;;;16.30;;
505;SDS011;551;48.524;9.056;2024-01-10T15:18:13;36.73;;;18.73;;
505;SDS011;551;48.524;9.056;2024-01-10T15:20:39;37.50;;;18.10;;
505;SDS011;551;48.524;9.056;2024-01-10T15:23:05;33.97;;;18.30;;
505;SDS011;551;48.524;9.056;2024-01-10T15:25:31;31.47;;;16.07;;
505;SDS011;551;48.524;9.056;2024-01-10T15:27:57;31.93;;;17.43;;